createdAt,value
2019-04-22T00:00:16.236Z,48.19
2019-04-22T00:01:19.490Z,48.06
2019-04-22T00:02:13.806Z,48.06
2019-04-22T00:03:15.246Z,47.66
2019-04-22T00:04:17.773Z,48.06
2019-04-22T00:05:25.923Z,47.86
2019-04-22T00:06:30.882Z,47.66
2019-04-22T00:07:36.198Z,47.66
2019-04-22T00:08:36.193Z,47.75
2019-04-22T00:09:38.881Z,47.96
2019-04-22T00:10:43.720Z,47.45
2019-04-22T00:11:35.461Z,47.75
2019-04-22T00:12:43.942Z,47.98
2019-04-22T00:13:40.673Z,47.78
2019-04-22T00:14:35.270Z,48.28
2019-04-22T00:15:32.600Z,47.67
2019-04-22T00:16:48.754Z,47.88
2019-04-22T00:18:54.851Z,47.37
2019-04-22T00:19:43.800Z,47.66
2019-04-22T00:20:35.496Z,46.84
2019-04-22T00:21:40.381Z,47.35
2019-04-22T00:22:38.047Z,47.05
2019-04-22T00:23:39.215Z,47.27
2019-04-22T00:24:40.215Z,47.47
2019-04-22T00:25:42.047Z,46.86
2019-04-22T00:27:40.570Z,46.74
2019-04-22T00:28:44.067Z,46.53
2019-04-22T00:29:59.357Z,46.13
2019-04-22T00:30:35.565Z,46.33
2019-04-22T00:31:32.740Z,46.53
2019-04-22T00:32:36.872Z,46.03
2019-04-22T00:33:26.781Z,46.64
2019-04-22T00:34:35.942Z,46.13
2019-04-22T00:35:35.486Z,45.95
2019-04-22T00:36:36.478Z,46.05
2019-04-22T00:37:43.775Z,46.03
2019-04-22T00:38:38.759Z,46.44
2019-04-22T00:39:44.769Z,46.13
2019-04-22T00:40:41.144Z,45.72
2019-04-22T00:41:44.100Z,45.83
2019-04-22T00:42:40.955Z,46.15
2019-04-22T00:43:45.856Z,46.03
2019-04-22T00:44:43.207Z,45.62
2019-04-22T00:45:40.475Z,45.42
2019-04-22T00:46:42.984Z,45.11
2019-04-22T00:47:46.238Z,45.21
2019-04-22T00:49:31.607Z,45.42
2019-04-22T00:50:06.795Z,45.52
2019-04-22T00:50:44.307Z,45.42
2019-04-22T00:51:44.523Z,45.52
2019-04-22T00:54:43.948Z,45.11
2019-04-22T00:55:40.406Z,45.52
2019-04-22T00:56:35.291Z,45.52
2019-04-22T00:58:38.706Z,44.71
2019-04-22T00:59:43.602Z,45.44
2019-04-22T01:00:37.655Z,45.11
2019-04-22T01:01:41.039Z,44.71
2019-04-22T01:02:41.624Z,45.54
2019-04-22T01:04:47.551Z,45.54
2019-04-22T01:05:51.514Z,45.14
2019-04-22T01:06:48.946Z,45.44
2019-04-22T01:07:51.394Z,45.54
2019-04-22T01:08:53.621Z,45.64
2019-04-22T01:09:52.149Z,45.03
2019-04-22T01:10:45.453Z,45.03
2019-04-22T01:11:44.558Z,45.03
2019-04-22T01:12:44.328Z,45.54
2019-04-22T01:13:46.918Z,45.03
2019-04-22T01:14:49.517Z,45.03
2019-04-22T01:15:47.869Z,45.14
2019-04-22T01:16:49.014Z,44.93
2019-04-22T01:17:46.450Z,44.95
2019-04-22T01:18:48.775Z,45.06
2019-04-22T01:19:50.952Z,45.76
2019-04-22T01:21:43.663Z,45.15
2019-04-22T01:22:46.125Z,45.36
2019-04-22T01:23:46.161Z,45.15
2019-04-22T01:24:45.909Z,45.46
2019-04-22T01:25:41.041Z,45.06
2019-04-22T01:26:40.490Z,45.36
2019-04-22T01:27:39.213Z,45.26
2019-04-22T01:28:34.270Z,45.67
2019-04-22T01:29:36.005Z,45.06
2019-04-22T01:30:32.653Z,45.56
2019-04-22T01:31:28.785Z,45.26
2019-04-22T01:32:27.284Z,45.46
2019-04-22T01:33:32.472Z,45.36
2019-04-22T01:34:37.484Z,45.67
2019-04-22T01:35:37.465Z,45.26
2019-04-22T01:36:44.082Z,45.46
2019-04-22T01:37:41.682Z,45.06
2019-04-22T01:38:45.499Z,45.15
2019-04-22T01:39:50.118Z,45.06
2019-04-22T01:40:53.496Z,45.15
2019-04-22T01:41:55.141Z,45.18
2019-04-22T01:42:42.275Z,45.06
2019-04-22T01:44:00.377Z,45.06
2019-04-22T01:44:45.824Z,45.18
2019-04-22T01:45:49.871Z,45.48
2019-04-22T01:46:50.725Z,45.87
2019-04-22T01:47:49.085Z,45.07
2019-04-22T01:48:50.611Z,45.18
2019-04-22T01:49:45.884Z,45.07
2019-04-22T01:50:43.121Z,45.06
2019-04-22T01:51:59.810Z,45.26
2019-04-22T01:52:56.302Z,44.54
2019-04-22T01:53:50.432Z,45.06
2019-04-22T01:54:52.133Z,45.06
2019-04-22T01:55:55.081Z,45.36
2019-04-22T01:56:47.322Z,45.36
2019-04-22T01:57:47.741Z,45.06
2019-04-22T01:58:38.064Z,44.97
2019-04-22T01:59:41.661Z,45.59
2019-04-22T02:00:51.208Z,46.01
2019-04-22T02:01:50.016Z,46.11
2019-04-22T02:02:49.210Z,46.11
2019-04-22T02:03:51.435Z,45.79
2019-04-22T02:05:04.612Z,45.18
2019-04-22T02:05:44.210Z,45.48
2019-04-22T02:06:48.231Z,45.48
2019-04-22T02:07:49.235Z,45.59
2019-04-22T02:08:53.357Z,46.09
2019-04-22T02:09:53.338Z,45.61
2019-04-22T02:10:57.633Z,46.22
2019-04-22T02:12:08.004Z,46.01
2019-04-22T02:12:46.986Z,46.30
2019-04-22T02:13:49.612Z,46.50
2019-04-22T02:14:44.291Z,45.68
2019-04-22T02:15:52.479Z,45.99
2019-04-22T02:16:50.396Z,45.89
2019-04-22T02:18:11.004Z,45.38
2019-04-22T02:18:56.119Z,45.18
2019-04-22T02:20:05.361Z,45.18
2019-04-22T02:21:01.514Z,45.68
2019-04-22T02:21:48.555Z,45.89
2019-04-22T02:23:00.903Z,45.48
2019-04-22T02:25:49.704Z,45.07
2019-04-22T02:27:00.288Z,45.07
2019-04-22T02:27:46.015Z,45.18
2019-04-22T02:29:01.920Z,45.07
2019-04-22T02:29:49.690Z,45.18
2019-04-22T02:31:16.004Z,44.97
2019-04-22T02:31:51.146Z,45.68
2019-04-22T02:33:11.558Z,45.99
2019-04-22T02:34:56.934Z,46.11
2019-04-22T02:36:08.245Z,46.11
2019-04-22T02:36:54.336Z,46.44
2019-04-22T02:37:45.236Z,46.55
2019-04-22T02:39:57.910Z,46.75
2019-04-22T02:41:50.330Z,46.75
2019-04-22T02:42:51.826Z,46.75
2019-04-22T02:44:04.036Z,47.05
2019-04-22T02:44:56.075Z,46.95
2019-04-22T02:46:10.670Z,47.05
2019-04-22T02:47:06.934Z,47.17
2019-04-22T02:47:49.957Z,47.58
2019-04-22T02:50:54.185Z,47.49
2019-04-22T02:51:49.859Z,47.69
2019-04-22T02:54:55.104Z,47.28
2019-04-22T02:56:05.516Z,47.49
2019-04-22T02:56:53.043Z,47.17
2019-04-22T02:58:03.753Z,47.49
2019-04-22T03:00:01.018Z,47.69
2019-04-22T03:01:01.219Z,47.58
2019-04-22T03:02:03.329Z,47.49
2019-04-22T03:04:03.404Z,47.58
2019-04-22T03:06:15.770Z,46.97
2019-04-22T03:06:45.912Z,47.58
2019-04-22T03:08:10.804Z,48.11
2019-04-22T03:09:10.860Z,48.02
2019-04-22T03:11:14.675Z,48.10
2019-04-22T03:12:14.244Z,48.11
2019-04-22T03:13:01.054Z,47.81
2019-04-22T03:14:07.023Z,48.52
2019-04-22T03:15:06.228Z,48.60
2019-04-22T03:16:07.956Z,48.40
2019-04-22T03:17:03.472Z,47.99
2019-04-22T03:18:20.373Z,48.10
2019-04-22T03:19:17.429Z,47.81
2019-04-22T03:21:08.051Z,47.99
2019-04-22T03:22:00.570Z,48.52
2019-04-22T03:25:32.656Z,47.99
2019-04-22T03:27:04.109Z,47.89
2019-04-22T03:27:54.534Z,48.19
2019-04-22T03:29:04.155Z,48.71
2019-04-22T03:30:33.274Z,48.71
2019-04-22T03:31:06.715Z,48.22
2019-04-22T03:35:34.509Z,48.63
2019-04-22T03:36:05.799Z,48.52
2019-04-22T03:40:13.980Z,48.93
2019-04-22T03:41:03.624Z,49.04
2019-04-22T03:45:10.189Z,48.65
2019-04-22T03:46:06.284Z,48.85
2019-04-22T03:47:10.986Z,49.87
2019-04-22T03:48:04.390Z,50.18
2019-04-22T03:49:24.009Z,50.10
2019-04-22T03:50:16.296Z,50.20
2019-04-22T03:51:09.571Z,50.20
2019-04-22T03:52:18.655Z,50.51
2019-04-22T03:54:10.069Z,50.31
2019-04-22T03:55:15.723Z,50.31
2019-04-22T03:56:13.753Z,50.61
2019-04-22T03:57:57.227Z,51.02
2019-04-22T03:59:07.231Z,50.61
2019-04-22T04:02:02.080Z,50.51
2019-04-22T04:03:09.422Z,50.31
2019-04-22T04:04:09.416Z,50.92
2019-04-22T04:04:59.115Z,50.92
2019-04-22T04:05:59.558Z,50.71
2019-04-22T04:07:15.109Z,50.61
2019-04-22T04:08:05.761Z,50.05
2019-04-22T04:09:08.994Z,50.26
2019-04-22T04:10:12.369Z,49.54
2019-04-22T04:12:03.547Z,48.81
2019-04-22T04:13:10.236Z,49.13
2019-04-22T04:14:09.323Z,48.93
2019-04-22T04:15:55.651Z,49.44
2019-04-22T04:17:06.230Z,49.65
2019-04-22T04:17:59.402Z,49.85
2019-04-22T04:19:07.833Z,49.95
2019-04-22T04:21:18.833Z,50.18
2019-04-22T04:22:08.029Z,50.26
2019-04-22T04:23:07.851Z,50.56
2019-04-22T04:26:01.786Z,50.38
2019-04-22T04:27:35.023Z,50.89
2019-04-22T04:28:24.415Z,50.89
2019-04-22T04:29:15.132Z,50.79
2019-04-22T04:30:14.764Z,50.79
2019-04-22T04:31:00.903Z,50.79
2019-04-22T04:32:18.823Z,50.89
2019-04-22T04:34:04.478Z,50.89
2019-04-22T04:36:03.372Z,50.71
2019-04-22T04:38:12.966Z,51.02
2019-04-22T04:39:00.722Z,51.10
2019-04-22T04:41:08.820Z,50.79
2019-04-22T04:42:58.493Z,50.46
2019-04-22T04:46:07.259Z,50.97
2019-04-22T04:47:11.498Z,51.30
2019-04-22T04:49:16.193Z,51.10
2019-04-22T04:52:06.416Z,51.20
2019-04-22T04:54:14.953Z,50.89
2019-04-22T04:55:09.998Z,51.02
2019-04-22T04:56:08.374Z,51.12
2019-04-22T04:56:58.654Z,51.02
2019-04-22T05:02:06.443Z,50.97
2019-04-22T05:03:00.489Z,50.77
2019-04-22T05:04:04.579Z,50.77
2019-04-22T05:05:12.138Z,50.46
2019-04-22T05:08:21.378Z,50.46
2019-04-22T05:10:22.115Z,50.44
2019-04-22T05:12:25.347Z,50.46
2019-04-22T05:13:10.322Z,50.54
2019-04-22T05:14:05.481Z,50.64
2019-04-22T05:15:09.131Z,50.26
2019-04-22T05:16:20.789Z,50.44
2019-04-22T05:17:03.897Z,50.84
2019-04-22T05:18:58.781Z,50.77
2019-04-22T05:20:07.440Z,50.74
2019-04-22T05:21:09.731Z,50.84
2019-04-22T05:21:57.772Z,50.64
2019-04-22T05:22:51.003Z,50.52
2019-04-22T05:24:03.782Z,50.13
2019-04-22T05:24:58.346Z,50.03
2019-04-22T05:26:00.061Z,50.31
2019-04-22T05:27:02.106Z,50.52
2019-04-22T05:27:59.901Z,50.01
2019-04-22T05:28:58.531Z,49.78
2019-04-22T05:30:21.559Z,49.68
2019-04-22T05:30:57.667Z,49.25
2019-04-22T05:31:56.776Z,49.04
2019-04-22T05:32:58.893Z,48.61
2019-04-22T05:34:02.004Z,48.61
2019-04-22T05:34:53.635Z,48.61
2019-04-22T05:35:53.703Z,48.49
2019-04-22T05:36:55.433Z,47.78
2019-04-22T05:37:57.984Z,47.96
2019-04-22T05:39:58.703Z,47.75
2019-04-22T05:40:58.953Z,47.75
2019-04-22T05:41:54.791Z,47.45
2019-04-22T05:42:56.356Z,47.63
2019-04-22T05:43:59.663Z,46.92
2019-04-22T05:44:54.925Z,46.90
2019-04-22T05:45:51.534Z,46.59
2019-04-22T05:46:52.765Z,46.49
2019-04-22T05:47:57.572Z,46.09
2019-04-22T05:49:15.105Z,46.57
2019-04-22T05:50:00.072Z,45.84
2019-04-22T05:50:56.460Z,46.04
2019-04-22T05:51:54.926Z,45.84
2019-04-22T05:52:56.649Z,45.94
2019-04-22T05:53:59.527Z,46.02
2019-04-22T05:54:54.917Z,45.92
2019-04-22T05:55:56.637Z,45.72
2019-04-22T05:56:42.910Z,44.99
2019-04-22T05:57:57.736Z,45.19
2019-04-22T05:58:58.804Z,44.89
2019-04-22T06:00:02.532Z,45.09
2019-04-22T06:01:19.820Z,45.09
2019-04-22T06:01:59.712Z,45.47
2019-04-22T06:03:59.239Z,44.26
2019-04-22T06:04:58.270Z,44.44
2019-04-22T06:05:55.257Z,44.44
2019-04-22T06:06:54.431Z,44.64
2019-04-22T06:07:52.734Z,44.64
2019-04-22T06:08:59.172Z,44.44
2019-04-22T06:10:02.334Z,43.73
2019-04-22T06:10:59.202Z,43.71
2019-04-22T06:11:51.572Z,43.91
2019-04-22T06:12:55.064Z,44.01
2019-04-22T06:13:51.701Z,43.71
2019-04-22T06:14:54.060Z,43.99
2019-04-22T06:15:52.997Z,44.09
2019-04-22T06:17:02.118Z,43.49
2019-04-22T06:18:02.220Z,43.49
2019-04-22T06:19:01.648Z,44.07
2019-04-22T06:19:50.485Z,43.67
2019-04-22T06:23:00.305Z,43.77
2019-04-22T06:24:04.975Z,43.75
2019-04-22T06:24:57.778Z,43.14
2019-04-22T06:27:02.826Z,44.05
2019-04-22T06:27:53.912Z,43.34
2019-04-22T06:28:54.718Z,43.02
2019-04-22T06:29:55.407Z,43.12
2019-04-22T06:30:57.528Z,43.12
2019-04-22T06:32:23.209Z,42.01
2019-04-22T06:32:53.758Z,42.72
2019-04-22T06:34:02.284Z,42.60
2019-04-22T06:35:00.428Z,42.61
2019-04-22T06:35:56.376Z,42.82
2019-04-22T06:37:03.589Z,42.60
2019-04-22T06:38:19.186Z,42.49
2019-04-22T06:38:53.283Z,41.99
2019-04-22T06:39:53.732Z,42.27
2019-04-22T06:41:02.789Z,42.47
2019-04-22T06:41:56.206Z,41.97
2019-04-22T06:42:57.922Z,42.27
2019-04-22T06:43:58.394Z,42.15
2019-04-22T06:45:02.817Z,41.35
2019-04-22T06:45:51.803Z,41.85
2019-04-22T06:46:53.250Z,42.15
2019-04-22T06:48:12.684Z,41.55
2019-04-22T06:48:55.169Z,41.85
2019-04-22T06:49:55.520Z,41.35
2019-04-22T06:50:52.969Z,41.95
2019-04-22T06:51:55.791Z,41.45
2019-04-22T06:52:58.616Z,42.13
2019-04-22T06:53:53.967Z,41.33
2019-04-22T06:54:54.690Z,40.72
2019-04-22T06:55:51.694Z,41.13
2019-04-22T06:56:58.112Z,40.60
2019-04-22T06:57:53.310Z,40.60
2019-04-22T06:58:52.243Z,41.20
2019-04-22T06:59:58.743Z,40.60
2019-04-22T07:00:54.707Z,40.70
2019-04-22T07:01:59.313Z,41.11
2019-04-22T07:03:53.923Z,40.78
2019-04-22T07:04:58.395Z,40.99
2019-04-22T07:05:52.337Z,40.06
2019-04-22T07:07:02.199Z,39.65
2019-04-22T07:08:02.650Z,40.16
2019-04-22T07:09:17.919Z,39.86
2019-04-22T07:09:54.304Z,38.95
2019-04-22T07:10:50.742Z,39.34
2019-04-22T07:11:53.080Z,38.64
2019-04-22T07:12:54.319Z,38.85
2019-04-22T07:14:00.109Z,39.05
2019-04-22T07:14:57.709Z,38.95
2019-04-22T07:16:00.420Z,38.95
2019-04-22T07:17:07.377Z,38.23
2019-04-22T07:17:58.175Z,38.31
2019-04-22T07:18:55.181Z,38.71
2019-04-22T07:19:48.726Z,38.51
2019-04-22T07:20:56.382Z,38.49
2019-04-22T07:21:57.227Z,38.09
2019-04-22T07:22:53.189Z,38.29
2019-04-22T07:24:03.012Z,38.49
2019-04-22T07:24:56.199Z,37.91
2019-04-22T07:25:53.385Z,37.99
2019-04-22T07:26:51.139Z,38.09
2019-04-22T07:27:52.336Z,38.42
2019-04-22T07:28:52.867Z,38.20
2019-04-22T07:30:52.821Z,38.40
2019-04-22T07:31:54.496Z,38.60
2019-04-22T07:33:51.666Z,38.38
2019-04-22T07:34:52.938Z,37.67
2019-04-22T07:36:12.554Z,38.49
2019-04-22T07:37:00.413Z,38.68
2019-04-22T07:37:48.316Z,38.38
2019-04-22T07:38:50.452Z,38.18
2019-04-22T07:39:54.971Z,38.06
2019-04-22T07:40:55.471Z,37.34
2019-04-22T07:41:51.370Z,37.72
2019-04-22T07:42:57.501Z,36.21
2019-04-22T07:44:10.275Z,37.22
2019-04-22T07:44:54.800Z,36.32
2019-04-22T07:45:53.425Z,36.52
2019-04-22T07:46:56.636Z,36.21
2019-04-22T07:48:51.902Z,36.70
2019-04-22T07:49:51.042Z,35.60
2019-04-22T07:51:08.760Z,35.60
2019-04-22T07:51:49.618Z,35.39
2019-04-22T07:52:52.190Z,35.98
2019-04-22T07:53:57.495Z,36.00
2019-04-22T07:54:53.072Z,36.50
2019-04-22T07:55:51.865Z,35.89
2019-04-22T07:57:02.679Z,36.92
2019-04-22T07:57:52.036Z,36.20
2019-04-22T07:58:55.626Z,36.28
2019-04-22T07:59:58.979Z,35.48
2019-04-22T08:00:57.769Z,35.56
2019-04-22T08:01:48.874Z,35.78
2019-04-22T08:04:00.165Z,35.28
2019-04-22T08:05:05.424Z,36.08
2019-04-22T08:06:07.920Z,35.18
2019-04-22T08:06:57.528Z,35.39
2019-04-22T08:07:59.486Z,35.10
2019-04-22T08:08:58.375Z,35.60
2019-04-22T08:10:04.548Z,35.48
2019-04-22T08:10:59.332Z,35.46
2019-04-22T08:11:53.776Z,35.16
2019-04-22T08:12:55.023Z,34.88
2019-04-22T08:13:55.264Z,35.80
2019-04-22T08:14:52.060Z,35.80
2019-04-22T08:15:55.327Z,35.68
2019-04-22T08:17:00.987Z,35.05
2019-04-22T08:19:00.718Z,35.14
2019-04-22T08:19:55.985Z,34.44
2019-04-22T08:20:56.593Z,35.05
2019-04-22T08:21:53.232Z,34.23
2019-04-22T08:22:57.395Z,34.56
2019-04-22T08:23:57.562Z,34.86
2019-04-22T08:24:54.273Z,35.14
2019-04-22T08:26:06.006Z,34.94
2019-04-22T08:26:53.283Z,35.06
2019-04-22T08:27:57.040Z,34.94
2019-04-22T08:29:03.858Z,34.74
2019-04-22T08:29:59.803Z,34.74
2019-04-22T08:30:54.399Z,34.94
2019-04-22T08:31:55.229Z,34.51
2019-04-22T08:32:53.098Z,34.03
2019-04-22T08:34:00.346Z,34.03
2019-04-22T08:34:47.227Z,34.12
2019-04-22T08:37:12.365Z,34.05
2019-04-22T08:38:31.396Z,34.36
2019-04-22T08:39:48.558Z,34.24
2019-04-22T08:40:56.146Z,34.76
2019-04-22T08:41:43.570Z,34.86
2019-04-22T08:42:58.371Z,34.44
2019-04-22T08:43:57.485Z,34.83
2019-04-22T08:45:06.226Z,34.33
2019-04-22T08:45:57.184Z,34.73
2019-04-22T08:46:57.922Z,33.91
2019-04-22T08:47:51.183Z,33.31
2019-04-22T08:48:57.753Z,33.00
2019-04-22T08:50:04.647Z,32.89
2019-04-22T08:50:58.720Z,33.11
2019-04-22T08:51:50.702Z,33.94
2019-04-22T08:52:57.611Z,34.14
2019-04-22T08:54:57.422Z,34.34
2019-04-22T08:55:57.881Z,34.24
2019-04-22T08:56:52.399Z,34.14
2019-04-22T08:58:11.258Z,34.43
2019-04-22T08:58:57.260Z,33.41
2019-04-22T08:59:59.031Z,34.81
2019-04-22T09:00:57.009Z,33.11
2019-04-22T09:01:52.899Z,33.09
2019-04-22T09:02:55.450Z,33.41
2019-04-22T09:03:52.680Z,32.89
2019-04-22T09:06:15.281Z,33.80
2019-04-22T09:07:07.727Z,33.20
2019-04-22T09:08:05.621Z,33.31
2019-04-22T09:08:55.242Z,33.11
2019-04-22T09:09:54.087Z,33.91
2019-04-22T09:10:51.930Z,33.00
2019-04-22T09:11:54.661Z,33.00
2019-04-22T09:13:55.116Z,33.51
2019-04-22T09:15:02.487Z,33.61
2019-04-22T09:15:49.585Z,33.11
2019-04-22T09:16:52.693Z,33.50
2019-04-22T09:17:55.989Z,33.50
2019-04-22T09:18:53.923Z,33.28
2019-04-22T09:19:54.573Z,33.08
2019-04-22T09:21:02.147Z,32.59
2019-04-22T09:21:57.517Z,33.29
2019-04-22T09:22:56.789Z,33.20
2019-04-22T09:24:53.957Z,32.78
2019-04-22T09:25:51.109Z,32.48
2019-04-22T09:27:15.789Z,32.29
2019-04-22T09:27:51.296Z,31.90
2019-04-22T09:29:50.097Z,32.58
2019-04-22T09:30:55.559Z,32.78
2019-04-22T09:31:56.658Z,32.76
2019-04-22T09:32:59.161Z,32.55
2019-04-22T09:33:47.613Z,32.53
2019-04-22T09:34:51.326Z,31.85
2019-04-22T09:36:02.955Z,32.15
2019-04-22T09:36:58.192Z,32.15
2019-04-22T09:38:08.900Z,32.05
2019-04-22T09:38:48.679Z,32.75
2019-04-22T09:39:59.654Z,32.75
2019-04-22T09:40:52.481Z,33.25
2019-04-22T09:41:51.390Z,32.56
2019-04-22T09:43:00.162Z,32.76
2019-04-22T09:43:56.629Z,32.56
2019-04-22T09:45:06.166Z,32.46
2019-04-22T09:45:53.940Z,32.98
2019-04-22T09:46:53.721Z,32.98
2019-04-22T09:47:58.299Z,33.26
2019-04-22T09:48:59.232Z,32.75
2019-04-22T09:49:54.925Z,32.25
2019-04-22T09:50:51.933Z,31.73
2019-04-22T09:51:55.440Z,32.55
2019-04-22T09:52:54.885Z,32.65
2019-04-22T09:54:04.081Z,31.93
2019-04-22T09:54:59.641Z,32.03
2019-04-22T09:55:53.157Z,32.14
2019-04-22T09:56:53.110Z,32.23
2019-04-22T09:57:53.071Z,32.14
2019-04-22T09:59:05.559Z,32.33
2019-04-22T09:59:57.768Z,32.53
2019-04-22T10:00:55.876Z,31.73
2019-04-22T10:02:08.116Z,31.43
2019-04-22T10:02:55.918Z,31.75
2019-04-22T10:03:56.167Z,32.15
2019-04-22T10:04:55.472Z,32.43
2019-04-22T10:06:07.401Z,31.54
2019-04-22T10:06:54.716Z,30.93
2019-04-22T10:07:54.380Z,31.46
2019-04-22T10:10:01.467Z,31.45
2019-04-22T10:10:56.594Z,31.35
2019-04-22T10:11:52.382Z,31.75
2019-04-22T10:12:46.719Z,31.45
2019-04-22T10:13:53.724Z,31.75
2019-04-22T10:14:51.098Z,31.43
2019-04-22T10:15:58.930Z,31.72
2019-04-22T10:16:50.713Z,31.12
2019-04-22T10:17:54.928Z,31.25
2019-04-22T10:18:52.397Z,32.38
2019-04-22T10:20:05.643Z,32.26
2019-04-22T10:20:57.328Z,31.85
2019-04-22T10:22:57.956Z,31.24
2019-04-22T10:23:53.323Z,31.04
2019-04-22T10:24:52.035Z,31.42
2019-04-22T10:25:52.614Z,30.22
2019-04-22T10:26:50.610Z,30.62
2019-04-22T10:27:56.827Z,30.62
2019-04-22T10:28:55.303Z,31.22
2019-04-22T10:29:54.284Z,31.10
2019-04-22T10:30:52.222Z,30.11
2019-04-22T10:32:06.701Z,30.29
2019-04-22T10:32:47.925Z,30.19
2019-04-22T10:33:48.235Z,29.72
2019-04-22T10:34:34.757Z,30.11
2019-04-22T10:35:28.733Z,30.89
2019-04-22T10:36:27.643Z,30.59
2019-04-22T10:37:26.224Z,30.10
2019-04-22T10:38:26.537Z,29.69
2019-04-22T10:39:36.813Z,29.69
2019-04-22T10:40:26.179Z,30.69
2019-04-22T10:41:26.400Z,30.59
2019-04-22T10:42:27.128Z,30.41
2019-04-22T10:43:27.356Z,30.71
2019-04-22T10:44:27.081Z,29.88
2019-04-22T10:45:26.143Z,30.08
2019-04-22T10:46:26.399Z,29.78
2019-04-22T10:47:26.103Z,30.08
2019-04-22T10:48:26.271Z,31.12
2019-04-22T10:49:26.637Z,31.12
2019-04-22T10:50:26.078Z,31.42
2019-04-22T10:51:26.540Z,31.22
2019-04-22T10:52:27.555Z,30.32
2019-04-22T10:53:26.073Z,28.34
2019-04-22T10:54:27.260Z,29.77
2019-04-22T10:55:27.391Z,30.35
2019-04-22T10:56:27.268Z,30.35
2019-04-22T10:57:25.996Z,29.75
2019-04-22T10:58:26.669Z,30.75
2019-04-22T10:59:26.920Z,30.85
2019-04-22T11:00:27.234Z,31.15
2019-04-22T11:01:25.985Z,29.64
2019-04-22T11:02:25.956Z,30.74
2019-04-22T11:03:26.535Z,29.82
2019-04-22T11:04:26.118Z,29.51
2019-04-22T11:05:26.192Z,29.39
2019-04-22T11:06:27.473Z,29.90
2019-04-22T11:07:36.325Z,28.80
2019-04-22T11:08:41.497Z,28.50
2019-04-22T11:09:27.056Z,27.90
2019-04-22T11:10:41.201Z,29.03
2019-04-22T11:11:34.774Z,29.64
2019-04-22T11:12:28.849Z,29.52
2019-04-22T11:13:26.148Z,27.43
2019-04-22T11:14:26.568Z,28.04
2019-04-22T11:15:26.578Z,28.24
2019-04-22T11:16:25.800Z,28.53
2019-04-22T11:17:26.576Z,28.33
2019-04-22T11:18:25.774Z,28.24
2019-04-22T11:19:25.777Z,28.36
2019-04-22T11:20:26.058Z,28.94
2019-04-22T11:21:25.737Z,29.54
2019-04-22T11:22:30.035Z,29.74
2019-04-22T11:23:27.033Z,29.43
2019-04-22T11:24:26.677Z,29.41
2019-04-22T11:25:25.705Z,29.50
2019-04-22T11:26:25.989Z,29.00
2019-04-22T11:27:25.717Z,29.50
2019-04-22T11:28:25.696Z,29.21
2019-04-22T11:29:25.716Z,29.52
2019-04-22T11:30:27.957Z,29.41
2019-04-22T11:31:26.442Z,28.22
2019-04-22T11:32:26.650Z,29.22
2019-04-22T11:33:26.732Z,30.02
2019-04-22T11:34:26.932Z,29.63
2019-04-22T11:35:25.826Z,29.72
2019-04-22T11:36:28.645Z,29.71
2019-04-22T11:37:25.563Z,29.20
2019-04-22T11:38:26.762Z,29.00
2019-04-22T11:39:26.020Z,29.48
2019-04-22T11:40:33.827Z,29.17
2019-04-22T11:41:25.660Z,28.47
2019-04-22T11:42:25.938Z,28.39
2019-04-22T11:43:26.176Z,30.10
2019-04-22T11:44:25.496Z,29.88
2019-04-22T11:45:26.941Z,28.88
2019-04-22T11:46:25.469Z,29.18
2019-04-22T11:47:25.687Z,30.07
2019-04-22T11:48:26.921Z,28.76
2019-04-22T11:49:25.864Z,28.36
2019-04-22T11:50:26.140Z,28.38
2019-04-22T11:51:25.421Z,28.57
2019-04-22T11:52:26.763Z,28.17
2019-04-22T11:53:26.916Z,29.17
2019-04-22T11:54:25.401Z,28.27
2019-04-22T11:55:26.695Z,28.28
2019-04-22T11:56:25.350Z,27.90
2019-04-22T11:57:25.470Z,27.69
2019-04-22T11:58:26.576Z,27.79
2019-04-22T11:59:26.716Z,28.19
2019-04-22T12:00:25.329Z,28.27
2019-04-22T12:01:26.648Z,27.85
2019-04-22T12:02:25.747Z,28.25
2019-04-22T12:03:25.452Z,28.25
2019-04-22T12:04:25.729Z,28.63
2019-04-22T12:05:25.943Z,28.63
2019-04-22T12:06:26.259Z,28.34
2019-04-22T12:07:26.638Z,27.83
2019-04-22T12:08:25.250Z,27.83
2019-04-22T12:09:25.702Z,28.06
2019-04-22T12:10:33.285Z,27.86
2019-04-22T12:11:26.277Z,28.96
2019-04-22T12:12:25.584Z,28.74
2019-04-22T12:13:26.203Z,28.56
2019-04-22T12:14:25.661Z,28.38
2019-04-22T12:15:26.696Z,29.27
2019-04-22T12:16:25.520Z,29.04
2019-04-22T12:17:26.313Z,27.83
2019-04-22T12:18:25.122Z,28.03
2019-04-22T12:19:25.304Z,27.45
2019-04-22T12:20:25.533Z,27.25
2019-04-22T12:21:25.090Z,26.94
2019-04-22T12:22:25.201Z,27.55
2019-04-22T12:23:25.273Z,27.45
2019-04-22T12:24:25.203Z,26.54
2019-04-22T12:25:34.709Z,26.93
2019-04-22T12:26:25.631Z,26.45
2019-04-22T12:27:26.776Z,26.47
2019-04-22T12:28:25.007Z,26.67
2019-04-22T12:29:25.007Z,26.86
2019-04-22T12:30:25.610Z,26.25
2019-04-22T12:31:24.980Z,25.85
2019-04-22T12:32:25.389Z,25.25
2019-04-22T12:33:25.321Z,24.55
2019-04-22T12:34:25.740Z,24.66
2019-04-22T12:35:26.284Z,25.56
2019-04-22T12:36:26.473Z,26.07
2019-04-22T12:37:33.000Z,25.37
2019-04-22T12:38:24.912Z,26.07
2019-04-22T12:39:25.414Z,25.50
2019-04-22T12:40:33.848Z,26.20
2019-04-22T12:41:25.862Z,26.58
2019-04-22T12:42:24.856Z,25.18
2019-04-22T12:43:26.423Z,25.65
2019-04-22T12:44:26.525Z,25.14
2019-04-22T12:45:24.845Z,25.15
2019-04-22T12:46:26.141Z,25.06
2019-04-22T12:47:26.161Z,25.16
2019-04-22T12:48:25.440Z,25.56
2019-04-22T12:49:26.040Z,25.46
2019-04-22T12:50:29.893Z,25.46
2019-04-22T12:51:25.039Z,24.35
2019-04-22T12:52:35.217Z,23.85
2019-04-22T12:53:27.602Z,24.84
2019-04-22T12:54:24.743Z,24.46
2019-04-22T12:55:26.012Z,24.75
2019-04-22T12:56:25.846Z,24.84
2019-04-22T12:57:24.937Z,24.83
2019-04-22T12:58:25.562Z,23.96
2019-04-22T12:59:25.518Z,24.48
2019-04-22T13:00:24.756Z,25.16
2019-04-22T13:01:24.769Z,25.16
2019-04-22T13:02:25.138Z,24.27
2019-04-22T13:03:24.641Z,24.46
2019-04-22T13:04:25.261Z,24.85
2019-04-22T13:05:25.048Z,23.96
2019-04-22T13:06:25.815Z,23.94
2019-04-22T13:07:25.927Z,22.84
2019-04-22T13:08:25.549Z,22.97
2019-04-22T13:10:45.431Z,21.97
2019-04-22T13:11:36.511Z,21.00
2019-04-22T13:12:35.032Z,22.20
2019-04-22T13:13:34.723Z,22.10
2019-04-22T13:14:34.979Z,22.30
2019-04-22T13:15:35.115Z,22.08
2019-04-22T13:16:35.281Z,23.30
2019-04-22T13:17:35.744Z,23.28
2019-04-22T13:18:43.399Z,22.48
2019-04-22T13:19:36.008Z,22.19
2019-04-22T13:20:34.704Z,22.60
2019-04-22T13:21:34.666Z,22.21
2019-04-22T13:22:34.981Z,22.70
2019-04-22T13:23:34.616Z,22.29
2019-04-22T13:24:36.079Z,22.28
2019-04-22T13:25:34.782Z,21.97
2019-04-22T13:26:35.944Z,20.76
2019-04-22T13:27:35.122Z,21.79
2019-04-22T13:28:34.708Z,20.79
2019-04-22T13:29:34.988Z,21.99
2019-04-22T13:30:34.754Z,22.69
2019-04-22T13:31:34.933Z,22.20
2019-04-22T13:32:34.761Z,22.11
2019-04-22T13:33:34.750Z,22.11
2019-04-22T13:34:40.229Z,22.40
2019-04-22T13:35:36.105Z,23.28
2019-04-22T13:36:34.715Z,21.97
2019-04-22T13:37:34.989Z,22.25
2019-04-22T13:38:35.387Z,21.64
2019-04-22T13:39:34.814Z,21.75
2019-04-22T13:40:34.919Z,22.14
2019-04-22T13:41:42.997Z,22.36
2019-04-22T13:42:35.450Z,23.07
2019-04-22T13:43:34.852Z,22.06
2019-04-22T13:44:35.585Z,21.96
2019-04-22T13:45:34.380Z,21.06
2019-04-22T13:46:35.607Z,20.95
2019-04-22T13:47:50.297Z,20.37
2019-04-22T13:48:59.095Z,19.76
2019-04-22T13:50:11.748Z,20.16
2019-04-22T13:51:03.751Z,19.37
2019-04-22T13:52:00.897Z,20.20
2019-04-22T13:53:10.348Z,20.51
2019-04-22T13:55:00.129Z,20.41
2019-04-22T13:55:59.194Z,20.31
2019-04-22T13:56:51.893Z,21.00
2019-04-22T13:57:53.959Z,20.59
2019-04-22T13:58:48.509Z,20.18
2019-04-22T13:59:41.097Z,19.58
2019-04-22T14:00:34.594Z,19.88
2019-04-22T14:01:34.748Z,19.78
2019-04-22T14:02:34.739Z,18.58
2019-04-22T14:03:35.784Z,19.97
2019-04-22T14:04:34.671Z,19.29
2019-04-22T14:05:34.957Z,18.39
2019-04-22T14:06:34.725Z,18.80
2019-04-22T14:07:34.778Z,18.60
2019-04-22T14:08:35.336Z,19.20
2019-04-22T14:09:34.110Z,19.29
2019-04-22T14:10:34.490Z,18.88
2019-04-22T14:11:43.362Z,18.58
2019-04-22T14:12:34.935Z,18.79
2019-04-22T14:13:34.264Z,18.88
2019-04-22T14:14:34.059Z,18.79
2019-04-22T14:15:34.053Z,19.90
2019-04-22T14:16:35.255Z,20.70